Shongopovi, Arizona
Current Conditions -  °F | °C
As of 1:56 PM on Sunday 23 Nov 2014 (Local Time) from KINW Reporting Station
Clear Clear  
Wind Chill: 51°   Ceiling: Unl
Heat Index: 51°   Visibility: 10mi
Dew Point: -8°   Wind: 23mph
Humidity: 9%   Direction: 330°NNW
Pressure: 30.1"   Gusts: 35mph
Location:  35.9162°N, 110.658°W
Report Text: KINW 232056Z AUTO 33020G30KT 10SM CLR 11/M22 A3010 RMK AO2 PK WND 32035/2030 SLP172 T01061222 56009
Loading
Personal Weather Stations






























Interactive Weather Map New forecast layout! Learn more

10-Day Weather Forecast

Advertisements
Track Severe Weather on mobile